ROA2037 MHTG-SVMI
Flight info
| Callsign | ROA2037 |
|---|---|
| Flight time | N/A |
| Altitude | 34000 |
| Route | KARAK UA552 FALLA/N0469F350 UA552 SPP UP671 UTKIV UW52 PBL ALDAK1 |
| Aircraft | B738/M-SDE2E3FGHIRWXY/LB1 |
Departure
| Time | N/A |
|---|---|
| Airport | Toncontín Airport (MHTG) |
Arrival
| Time | 2026-05-07 19:31 |
|---|---|
| Airport | Maiquetía Simón Bolívar International Airport (SVMI) |
| Time | Latitude | Longitude | Altitude | Speed | Heading |
|---|---|---|---|---|---|
| 2026-05-07 19:26 | 10.59823 | -67.17360 | 3439 ft | 160 kts | 88° |
| 2026-05-07 19:27 | 10.59853 | -67.16228 | 3208 ft | 160 kts | 88° |
| 2026-05-07 19:27 | 10.59882 | -67.15108 | 2963 ft | 157 kts | 88° |
| 2026-05-07 19:27 | 10.59911 | -67.14001 | 2729 ft | 156 kts | 88° |
| 2026-05-07 19:27 | 10.59940 | -67.12902 | 2510 ft | 155 kts | 88° |
| 2026-05-07 19:28 | 10.59969 | -67.11806 | 2295 ft | 155 kts | 89° |
| 2026-05-07 19:28 | 10.59997 | -67.10716 | 2089 ft | 155 kts | 88° |
| 2026-05-07 19:28 | 10.60025 | -67.09624 | 1894 ft | 154 kts | 88° |
| 2026-05-07 19:28 | 10.60054 | -67.08536 | 1684 ft | 153 kts | 88° |
| 2026-05-07 19:29 | 10.60087 | -67.07469 | 1493 ft | 150 kts | 87° |
| 2026-05-07 19:29 | 10.60134 | -67.06397 | 1291 ft | 152 kts | 88° |
| 2026-05-07 19:29 | 10.60150 | -67.05315 | 1080 ft | 153 kts | 90° |
| 2026-05-07 19:29 | 10.60158 | -67.04252 | 924 ft | 149 kts | 90° |
| 2026-05-07 19:30 | 10.60175 | -67.03194 | 751 ft | 152 kts | 89° |
| 2026-05-07 19:30 | 10.60202 | -67.02120 | 512 ft | 146 kts | 89° |
| 2026-05-07 19:30 | 10.60221 | -67.01133 | 269 ft | 136 kts | 88° |
| 2026-05-07 19:30 | 10.60244 | -67.00272 | 220 ft | 96 kts | 88° |
| 2026-05-07 19:31 | 10.60251 | -66.99942 | 224 ft | 12 kts | 107° |
| 2026-05-07 19:31 | 10.60182 | -66.99917 | 221 ft | 12 kts | 184° |
| 2026-05-07 19:31 | 10.60123 | -66.99950 | 218 ft | 10 kts | 251° |
| 2026-05-07 19:31 | 10.60120 | -67.00021 | 219 ft | 10 kts | 271° |
| 2026-05-07 19:32 | 10.60119 | -67.00090 | 220 ft | 10 kts | 266° |
| 2026-05-07 19:32 | 10.60116 | -67.00158 | 221 ft | 9 kts | 268° |
| 2026-05-07 19:32 | 10.60115 | -67.00224 | 222 ft | 9 kts | 267° |
| 2026-05-07 19:32 | 10.60100 | -67.00285 | 224 ft | 9 kts | 231° |
| 2026-05-07 19:33 | 10.60042 | -67.00297 | 224 ft | 9 kts | 179° |
| 2026-05-07 19:33 | 10.59982 | -67.00294 | 224 ft | 9 kts | 177° |
| 2026-05-07 19:33 | 10.59928 | -67.00320 | 224 ft | 9 kts | 242° |
| 2026-05-07 19:33 | 10.59899 | -67.00337 | 225 ft | 2 kts | 190° |
| 2026-05-07 19:34 | 10.59883 | -67.00338 | 225 ft | 3 kts | 178° |
| 2026-05-07 19:34 | 10.59860 | -67.00337 | 225 ft | 4 kts | 178° |
| 2026-05-07 19:34 | 10.59851 | -67.00337 | 225 ft | 1 kts | 178° |
| 2026-05-07 19:34 | 10.59838 | -67.00336 | 225 ft | 2 kts | 178° |
| 2026-05-07 19:35 | 10.59835 | -67.00336 | 225 ft | 0 kts | 178° |
| 2026-05-07 19:35 | 10.59836 | -67.00336 | 225 ft | 0 kts | 178° |